createdAt,value
2022-11-02T11:20:05.912Z,99038.28
2022-11-02T11:22:49.747Z,99025.47
2022-11-02T11:25:36.973Z,99020.63
2022-11-02T11:28:29.907Z,99021.44
2022-11-02T11:31:19.858Z,99017.28
2022-11-02T11:34:03.825Z,99017.72
2022-11-02T11:36:37.174Z,98992.25
2022-11-02T11:39:11.609Z,98995.56
2022-11-02T11:41:42.390Z,99005.41
2022-11-02T11:44:23.126Z,98997.22
2022-11-02T11:46:58.116Z,99002.81
2022-11-02T11:52:35.951Z,98990.03
2022-11-02T11:55:29.432Z,98997.50
2022-11-02T11:58:45.380Z,98996.53
2022-11-02T12:01:33.277Z,98981.66
2022-11-02T12:04:11.307Z,98977.88
2022-11-02T12:06:51.982Z,98977.50
2022-11-02T12:09:30.426Z,98981.28
2022-11-02T12:12:31.926Z,98971.56
2022-11-02T12:15:18.915Z,98968.31
2022-11-02T12:18:23.450Z,98965.00
2022-11-02T12:21:08.492Z,98963.31
2022-11-02T12:23:54.585Z,98958.91
2022-11-02T12:26:39.601Z,98968.88
2022-11-02T12:29:45.508Z,98959.69
2022-11-02T12:32:28.668Z,98955.00
2022-11-02T12:35:27.943Z,98957.50
2022-11-02T12:38:18.775Z,98957.13
2022-11-02T12:41:27.300Z,98949.50
2022-11-02T12:44:12.487Z,98940.16
2022-11-02T12:47:17.749Z,98935.81
2022-11-02T12:50:02.650Z,98934.81
2022-11-02T12:52:50.305Z,98934.56
2022-11-02T12:55:37.274Z,98925.69
2022-11-02T12:58:33.354Z,98920.91
2022-11-02T13:01:14.143Z,98915.44
2022-11-02T13:04:13.808Z,98913.66
2022-11-02T13:06:52.368Z,98913.88
2022-11-02T13:09:50.382Z,98912.84
2022-11-02T13:12:26.090Z,98911.19
2022-11-02T13:18:10.655Z,98917.63
2022-11-02T13:20:50.930Z,98910.13
2022-11-02T13:23:40.850Z,98906.75
2022-11-02T13:26:41.094Z,98914.69
2022-11-02T13:29:59.843Z,98912.03
2022-11-02T13:33:12.589Z,98914.03
2022-11-02T13:35:49.435Z,98914.53
2022-11-02T13:38:55.350Z,98911.88
2022-11-02T13:41:50.194Z,98905.97
2022-11-02T13:44:58.025Z,98901.66
2022-11-02T13:48:03.481Z,98915.91
2022-11-02T13:50:36.183Z,98914.72
2022-11-02T13:53:18.416Z,98916.28
2022-11-02T13:55:57.962Z,98919.38
2022-11-02T13:58:40.183Z,98924.41
2022-11-02T14:01:12.024Z,98914.50
2022-11-02T14:04:02.524Z,98919.63
2022-11-02T14:06:39.158Z,98911.25
2022-11-02T14:09:13.126Z,98910.16
2022-11-02T14:11:53.209Z,98923.59
2022-11-02T14:14:24.990Z,98925.78
2022-11-02T14:16:59.647Z,98925.53
2022-11-02T14:19:53.690Z,98922.16
2022-11-02T14:22:27.959Z,98913.53
2022-11-02T14:25:08.551Z,98930.75
2022-11-02T14:27:40.845Z,98933.03
2022-11-02T14:30:55.989Z,98943.06
2022-11-02T14:33:56.126Z,98867.78
2022-11-02T14:37:02.349Z,98942.34
2022-11-02T14:40:16.826Z,98956.00
2022-11-02T14:42:49.707Z,98956.63
2022-11-02T14:45:57.461Z,98941.00
2022-11-02T14:48:36.681Z,98945.59
2022-11-02T14:51:08.628Z,98948.16
2022-11-02T14:53:39.478Z,98945.69
2022-11-02T14:56:16.596Z,98927.88
2022-11-02T14:58:57.101Z,98938.75
2022-11-02T15:01:25.945Z,98949.13
2022-11-02T15:03:56.109Z,98947.41
2022-11-02T15:06:30.052Z,98921.97
2022-11-02T15:09:07.356Z,98954.22
2022-11-02T15:11:54.754Z,98960.25
2022-11-02T15:14:46.420Z,98963.47
2022-11-02T15:17:38.984Z,98957.53
2022-11-02T15:20:34.970Z,98962.97
2022-11-02T15:26:59.328Z,98972.31
2022-11-02T15:29:48.387Z,98984.34
2022-11-02T15:32:30.494Z,98977.78
2022-11-02T15:35:01.487Z,98989.63
2022-11-02T15:37:50.410Z,98989.28
2022-11-02T15:41:00.874Z,98980.91
2022-11-02T15:43:48.219Z,98981.38
2022-11-02T15:46:18.723Z,98981.22
2022-11-02T15:49:03.290Z,98991.31
2022-11-02T15:52:08.400Z,98991.69
2022-11-02T15:55:17.808Z,98995.19
2022-11-02T15:58:12.357Z,98995.19
2022-11-02T16:00:48.586Z,98996.38
2022-11-02T16:03:21.941Z,99002.84
2022-11-02T16:05:54.757Z,99007.47
2022-11-02T16:08:37.226Z,99004.50
2022-11-02T16:11:20.933Z,99006.38
2022-11-02T16:14:08.515Z,99009.81
2022-11-02T16:16:48.397Z,99002.75
2022-11-02T16:19:23.467Z,99006.84
2022-11-02T16:21:51.589Z,99009.34
2022-11-02T16:24:28.702Z,99012.97
2022-11-02T16:26:57.934Z,98999.19
2022-11-02T16:29:38.972Z,99019.25
2022-11-02T16:32:15.566Z,99018.28
2022-11-02T16:34:48.503Z,99026.66
2022-11-02T16:37:28.446Z,99031.25
2022-11-02T16:39:57.140Z,99038.00
2022-11-02T16:42:26.558Z,99042.75
2022-11-02T16:47:51.013Z,99044.19
2022-11-02T16:50:22.129Z,99034.22
2022-11-02T16:53:04.754Z,99045.38
2022-11-02T16:55:50.217Z,99060.13
2022-11-02T17:01:08.627Z,99069.63
2022-11-02T17:03:39.395Z,99067.53
2022-11-02T17:06:16.022Z,99061.56
2022-11-02T17:08:53.585Z,99044.19
2022-11-02T17:11:32.935Z,99045.84
2022-11-02T17:14:03.082Z,99076.00
2022-11-02T17:16:38.289Z,99074.22
2022-11-02T17:19:14.640Z,99072.22
2022-11-02T17:21:48.999Z,99080.44
2022-11-02T17:24:38.669Z,99086.03
2022-11-02T17:27:29.241Z,99088.00
2022-11-02T17:30:03.200Z,99084.06
2022-11-02T17:32:33.762Z,99099.16
2022-11-02T17:35:09.610Z,99097.47
2022-11-02T17:37:41.341Z,99096.66
2022-11-02T17:40:14.552Z,99095.84
2022-11-02T17:43:01.363Z,99080.56
2022-11-02T17:45:40.383Z,99094.53
2022-11-02T17:48:40.133Z,99085.81
2022-11-02T17:51:14.800Z,99100.09
2022-11-02T17:53:51.297Z,99104.25
2022-11-02T17:56:24.061Z,99107.53
2022-11-02T17:58:54.324Z,99110.47
2022-11-02T18:01:24.764Z,99111.94
2022-11-02T18:04:02.602Z,99116.41
2022-11-02T18:06:30.891Z,99123.06
2022-11-02T18:09:18.003Z,99121.00
2022-11-02T18:11:55.090Z,99119.13
2022-11-02T18:14:26.419Z,99127.06
2022-11-02T18:17:02.384Z,99131.78
2022-11-02T18:19:35.789Z,99131.66
2022-11-02T18:22:04.546Z,99129.47
2022-11-02T18:24:35.644Z,99135.88
2022-11-02T18:27:06.203Z,99132.22
2022-11-02T18:29:36.561Z,99131.91
2022-11-02T18:32:07.338Z,99132.16
2022-11-02T18:34:38.903Z,99122.59
2022-11-02T18:37:12.680Z,99104.41
2022-11-02T18:39:43.521Z,99114.91
2022-11-02T18:42:16.351Z,99119.22
2022-11-02T18:44:46.709Z,99126.66
2022-11-02T18:47:17.648Z,99128.34
2022-11-02T18:49:52.143Z,99133.81
2022-11-02T18:52:22.398Z,99120.19
2022-11-02T18:54:55.791Z,99131.84
2022-11-02T18:57:36.637Z,99139.34
2022-11-02T19:00:07.985Z,99140.81
2022-11-02T19:02:45.035Z,99144.09
2022-11-02T19:05:35.497Z,99141.19
2022-11-02T19:08:21.659Z,99148.72
2022-11-02T19:10:50.506Z,99149.94
2022-11-02T19:13:22.070Z,99147.03
2022-11-02T19:15:53.030Z,99161.75
2022-11-02T19:18:21.838Z,99164.13
2022-11-02T19:20:57.202Z,99171.13
2022-11-02T19:23:29.247Z,99175.16
2022-11-02T19:25:59.656Z,99172.16
2022-11-02T19:28:38.347Z,99139.88
2022-11-02T19:31:10.769Z,99170.25
2022-11-02T19:33:39.266Z,99170.50
2022-11-02T19:36:08.411Z,99171.72
2022-11-02T19:38:48.353Z,99172.53
2022-11-02T19:41:28.899Z,99171.13
2022-11-02T19:44:00.849Z,99150.78
2022-11-02T19:46:45.148Z,99141.28
2022-11-02T19:49:18.561Z,99149.34
2022-11-02T19:51:48.592Z,99134.44
2022-11-02T19:54:19.603Z,99125.03
2022-11-02T19:59:35.819Z,99145.22
2022-11-02T20:02:14.939Z,99160.13
2022-11-02T20:04:47.449Z,99177.19
2022-11-02T20:07:16.710Z,99181.81
2022-11-02T20:12:30.555Z,99183.75
2022-11-02T20:15:01.637Z,99182.13
2022-11-02T20:17:41.932Z,99175.53
2022-11-02T20:20:23.052Z,99180.44
2022-11-02T20:23:02.461Z,99164.78
2022-11-02T20:25:33.191Z,99166.22
2022-11-02T20:28:05.050Z,99150.84
2022-11-02T20:30:35.392Z,99134.59
2022-11-02T20:33:12.883Z,99157.88
2022-11-02T20:35:43.109Z,99154.94
2022-11-02T20:38:14.421Z,99156.22
2022-11-02T20:40:45.393Z,99167.00
2022-11-02T20:43:17.340Z,99172.56
2022-11-02T20:46:01.566Z,99174.34
2022-11-02T20:48:45.774Z,99182.25
2022-11-02T20:51:19.479Z,99188.53
2022-11-02T20:54:04.197Z,99200.19
2022-11-02T20:56:38.304Z,99192.41
2022-11-02T20:59:07.386Z,99189.22
2022-11-02T21:01:41.243Z,99192.97
2022-11-02T21:04:13.915Z,99198.41
2022-11-02T21:06:51.928Z,99206.13
2022-11-02T21:09:28.343Z,99210.34
2022-11-02T21:12:16.016Z,99207.56
2022-11-02T21:14:46.366Z,99187.59
2022-11-02T21:17:15.561Z,99202.72
2022-11-02T21:19:54.239Z,99198.72
2022-11-02T21:22:42.576Z,99194.19
2022-11-02T21:25:12.560Z,99206.03
2022-11-02T21:30:25.725Z,99193.56
2022-11-02T21:32:59.248Z,99195.50
2022-11-02T21:35:36.570Z,99187.69
2022-11-02T21:38:12.968Z,99199.22
2022-11-02T21:40:46.743Z,99190.59
2022-11-02T21:43:18.578Z,99193.16
2022-11-02T21:45:58.813Z,99186.44
2022-11-02T21:48:33.996Z,99183.56
2022-11-02T21:51:09.924Z,99188.53
2022-11-02T21:53:42.212Z,99190.38
2022-11-02T21:56:22.377Z,99193.16
2022-11-02T21:59:02.589Z,99190.97
2022-11-02T22:01:50.347Z,99188.44
2022-11-02T22:04:47.390Z,99186.59
2022-11-02T22:07:15.363Z,99192.53
2022-11-02T22:09:52.272Z,99191.00
2022-11-02T22:12:41.933Z,99199.88
2022-11-02T22:15:27.450Z,99195.56
2022-11-02T22:20:39.525Z,99200.66
2022-11-02T22:23:10.440Z,99203.22
2022-11-02T22:25:38.319Z,99186.78
2022-11-02T22:28:08.307Z,99193.50
2022-11-02T22:30:50.386Z,99188.44
2022-11-02T22:36:12.290Z,99171.19
2022-11-02T22:38:58.336Z,99177.75
2022-11-02T22:41:51.776Z,99187.63
2022-11-02T22:44:22.673Z,99189.81
2022-11-02T22:49:39.883Z,99185.06
2022-11-02T22:52:08.178Z,99171.84
2022-11-02T22:54:41.489Z,99127.81
2022-11-02T22:57:12.167Z,99193.41
2022-11-02T22:59:43.498Z,99168.78
2022-11-02T23:02:11.536Z,99180.53
2022-11-02T23:04:41.823Z,99188.88
2022-11-02T23:07:18.136Z,99199.34
2022-11-02T23:09:54.281Z,99189.38
2022-11-02T23:12:23.301Z,99192.03
2022-11-02T23:14:52.216Z,99180.59
2022-11-02T23:17:27.790Z,99185.97
2022-11-02T23:19:59.050Z,99184.13
2022-11-02T23:22:44.791Z,99190.91
2022-11-02T23:25:17.646Z,99189.56
2022-11-02T23:28:03.977Z,99176.41
2022-11-02T23:30:56.941Z,99188.34
2022-11-02T23:33:34.273Z,99188.00
2022-11-02T23:36:13.273Z,99187.53
2022-11-02T23:39:18.113Z,99184.94
2022-11-02T23:41:59.412Z,99186.09
2022-11-02T23:44:30.960Z,99153.97
2022-11-02T23:47:02.064Z,99182.19
2022-11-02T23:49:31.656Z,99183.00
2022-11-02T23:52:20.878Z,99179.59
2022-11-02T23:55:06.838Z,99184.94
2022-11-02T23:57:38.032Z,99174.84
